Time;durP1;ratioP1;P1;durP2;ratioP2;P2;SDS_P1;SDS_P2;PMS_P1;PMS_P2;Temp;Humidity;BMP_temperature;BMP_pressure;BME280_temperature;BME280_humidity;BME280_pressure;Samples;Min_cycle;Max_cycle;Signal;HPM_P1;HPM_P2
2021/01/03 00:01:14;;;;;;;8.55;5.10;;;3.20;96.70;;;;;;5042717;28;20037;-77
2021/01/03 00:03:53;;;;;;;7.82;4.55;;;3.20;96.70;;;;;;5036156;28;20040;-76
2021/01/03 00:06:19;;;;;;;6.65;4.35;;;3.20;96.90;;;;;;5050103;28;20502;-78
2021/01/03 00:08:45;;;;;;;7.60;4.60;;;3.20;96.70;;;;;;5030252;28;20030;-76
2021/01/03 00:11:11;;;;;;;7.60;4.60;;;3.20;96.80;;;;;;5011452;28;20132;-76
2021/01/03 00:13:36;;;;;;;7.60;4.65;;;3.20;97.00;;;;;;5029043;28;20038;-76
2021/01/03 00:16:03;;;;;;;9.23;4.65;;;3.20;97.00;;;;;;5035334;28;20026;-77
2021/01/03 00:18:34;;;;;;;9.15;4.68;;;3.20;96.90;;;;;;5043003;28;20033;-76
2021/01/03 00:21:11;;;;;;;9.70;4.95;;;3.10;96.90;;;;;;5031000;28;20041;-79
2021/01/03 00:23:37;;;;;;;9.20;4.90;;;3.10;96.90;;;;;;5033508;28;20040;-77
2021/01/03 00:26:03;;;;;;;9.43;5.05;;;3.10;96.80;;;;;;5014591;28;20033;-76
2021/01/03 00:28:46;;;;;;;8.90;5.30;;;3.20;97.00;;;;;;5033827;28;20506;-77
2021/01/03 00:31:12;;;;;;;9.65;4.57;;;3.20;97.10;;;;;;5033875;28;20033;-77
2021/01/03 00:33:37;;;;;;;8.60;5.40;;;3.10;96.90;;;;;;5002311;28;20228;-77
2021/01/03 00:36:05;;;;;;;9.32;5.50;;;3.10;96.80;;;;;;5031430;28;20029;-77
2021/01/03 00:38:42;;;;;;;8.23;5.03;;;3.10;97.00;;;;;;5032040;28;20037;-77
2021/01/03 00:41:12;;;;;;;8.15;4.82;;;3.10;97.00;;;;;;5032471;28;20018;-77
2021/01/03 00:43:38;;;;;;;7.88;4.75;;;3.10;96.90;;;;;;5029360;28;20041;-77
2021/01/03 00:46:04;;;;;;;9.45;5.30;;;3.10;96.80;;;;;;5033126;28;20025;-79
2021/01/03 00:48:31;;;;;;;6.97;4.25;;;3.10;96.70;;;;;;5031501;28;20048;-77
2021/01/03 00:50:56;;;;;;;9.00;4.97;;;3.10;96.90;;;;;;5034098;28;20585;-77
2021/01/03 00:53:22;;;;;;;9.40;5.03;;;3.10;96.90;;;;;;5008647;28;20046;-78
2021/01/03 00:55:50;;;;;;;8.07;4.70;;;3.10;96.90;;;;;;5025242;28;20372;-79
2021/01/03 00:58:29;;;;;;;10.00;5.45;;;3.10;96.80;;;;;;5035216;28;20037;-76
2021/01/03 01:00:55;;;;;;;7.50;4.57;;;3.10;96.90;;;;;;5015006;28;20041;-77
2021/01/03 01:03:32;;;;;;;8.05;5.07;;;3.10;97.10;;;;;;5038645;28;20072;-75
2021/01/03 01:05:58;;;;;;;8.60;4.88;;;3.20;96.90;;;;;;5037308;28;20029;-77
2021/01/03 01:08:24;;;;;;;8.18;4.57;;;3.20;96.90;;;;;;5031557;28;20052;-77
2021/01/03 01:10:49;;;;;;;8.30;4.97;;;3.20;96.70;;;;;;5030859;28;20030;-77
2021/01/03 01:13:15;;;;;;;8.00;4.72;;;3.20;96.60;;;;;;5031948;28;20021;-77
2021/01/03 01:15:41;;;;;;;9.43;5.05;;;3.20;96.50;;;;;;5027050;28;20491;-77
2021/01/03 01:18:06;;;;;;;8.48;5.07;;;3.20;96.50;;;;;;5034036;28;20034;-76
2021/01/03 01:20:33;;;;;;;9.80;5.80;;;3.20;96.70;;;;;;5038685;28;20469;-75
2021/01/03 01:22:59;;;;;;;8.05;4.90;;;3.20;96.50;;;;;;5032543;28;20475;-76
2021/01/03 01:25:27;;;;;;;9.73;5.68;;;3.20;96.80;;;;;;5033677;28;20050;-76
2021/01/03 01:27:59;;;;;;;10.32;5.05;;;3.20;96.70;;;;;;5033568;28;20029;-77
2021/01/03 01:30:28;;;;;;;8.60;4.90;;;3.30;96.80;;;;;;5030885;28;20072;-75
2021/01/03 01:32:56;;;;;;;8.52;5.07;;;3.20;96.80;;;;;;5030767;28;20068;-76
2021/01/03 01:35:28;;;;;;;10.20;5.47;;;3.20;96.80;;;;;;5030767;28;20026;-75
2021/01/03 01:37:55;;;;;;;8.48;5.05;;;3.20;96.80;;;;;;5036316;28;20040;-75
2021/01/03 01:40:47;;;;;;;9.40;5.32;;;3.20;97.00;;;;;;5026018;28;20037;-76
2021/01/03 01:43:15;;;;;;;11.85;5.88;;;3.20;96.80;;;;;;5032339;28;20098;-77
2021/01/03 01:45:44;;;;;;;9.90;5.32;;;3.10;96.90;;;;;;5033475;28;20068;-76
2021/01/03 01:48:22;;;;;;;11.20;5.85;;;3.20;97.00;;;;;;5022255;28;20050;-76
2021/01/03 01:51:20;;;;;;;9.90;5.45;;;3.10;97.00;;;;;;5031610;28;20040;-76
2021/01/03 01:53:58;;;;;;;9.82;5.60;;;3.10;97.10;;;;;;5027416;28;20400;-76
2021/01/03 01:56:43;;;;;;;10.02;5.15;;;3.10;97.00;;;;;;5030345;28;20052;-76
2021/01/03 01:59:27;;;;;;;8.88;5.50;;;3.10;97.20;;;;;;5032756;28;20041;-76
2021/01/03 02:02:05;;;;;;;10.00;5.65;;;3.10;97.10;;;;;;5033848;28;20033;-76
2021/01/03 02:04:40;;;;;;;10.40;5.78;;;3.10;97.30;;;;;;5033246;28;20057;-80
2021/01/03 02:07:28;;;;;;;9.73;5.88;;;3.20;97.20;;;;;;5024347;28;20021;-77
2021/01/03 02:10:09;;;;;;;9.82;5.20;;;3.10;97.10;;;;;;5029323;28;20116;-76
2021/01/03 02:12:44;;;;;;;10.68;5.75;;;3.20;97.20;;;;;;5027970;28;20061;-77
2021/01/03 02:15:22;;;;;;;11.27;6.22;;;3.10;97.10;;;;;;5031515;28;20130;-77
2021/01/03 02:18:08;;;;;;;10.00;5.90;;;3.10;97.50;;;;;;5035681;28;20076;-78
2021/01/03 02:21:25;;;;;;;10.70;6.15;;;3.10;97.60;;;;;;5035699;28;20124;-79
2021/01/03 02:24:04;;;;;;;10.02;6.22;;;3.10;97.50;;;;;;5032373;28;21138;-77
2021/01/03 02:26:36;;;;;;;9.35;5.47;;;3.10;97.60;;;;;;5029936;28;20037;-77
2021/01/03 02:29:05;;;;;;;8.82;5.30;;;3.10;97.60;;;;;;5044440;28;20038;-76
2021/01/03 02:31:48;;;;;;;9.93;5.78;;;3.10;97.60;;;;;;5038508;28;20049;-76
2021/01/03 02:34:22;;;;;;;9.80;4.97;;;3.10;97.40;;;;;;5029070;28;20029;-76
2021/01/03 02:36:52;;;;;;;9.38;5.78;;;3.20;97.20;;;;;;5030597;28;20022;-76
2021/01/03 02:39:39;;;;;;;11.63;6.05;;;3.20;97.30;;;;;;5032534;28;20479;-77
2021/01/03 02:42:20;;;;;;;12.30;6.38;;;3.20;97.30;;;;;;5032023;28;20061;-76
2021/01/03 02:44:46;;;;;;;13.30;6.57;;;3.20;97.40;;;;;;5027695;28;20052;-76
2021/01/03 02:47:13;;;;;;;10.50;5.85;;;3.10;97.60;;;;;;5031442;28;20124;-79
2021/01/03 02:49:39;;;;;;;9.93;5.75;;;3.10;97.60;;;;;;5030200;28;20042;-76
2021/01/03 02:52:10;;;;;;;10.85;6.10;;;3.10;97.60;;;;;;5029364;28;20491;-76
2021/01/03 02:54:36;;;;;;;;;;;3.10;97.70;;;;;;5022883;28;20033;-75
2021/01/03 02:57:01;;;;;;;11.60;5.88;;;3.20;97.70;;;;;;5030002;28;19917;-76
2021/01/03 02:59:33;;;;;;;9.88;5.57;;;3.10;97.60;;;;;;5026619;28;20072;-75
2021/01/03 03:01:59;;;;;;;11.15;5.70;;;3.20;97.70;;;;;;5032144;28;20391;-76
2021/01/03 03:04:24;;;;;;;10.70;6.32;;;3.10;97.20;;;;;;5032112;28;20120;-76
2021/01/03 03:06:50;;;;;;;11.27;6.60;;;3.10;97.40;;;;;;5022428;28;20523;-77
2021/01/03 03:09:20;;;;;;;10.45;6.20;;;3.10;97.50;;;;;;4994922;28;20038;-76
2021/01/03 03:11:48;;;;;;;13.20;6.30;;;3.10;97.80;;;;;;5036605;28;20403;-75
2021/01/03 03:14:14;;;;;;;10.05;5.63;;;3.10;97.60;;;;;;5029048;28;20184;-77
2021/01/03 03:16:42;;;;;;;11.00;6.68;;;3.10;97.70;;;;;;5020514;28;20484;-76
2021/01/03 03:19:08;;;;;;;11.45;6.72;;;3.10;97.50;;;;;;5029677;28;20037;-76
2021/01/03 03:21:33;;;;;;;10.23;5.90;;;3.10;97.80;;;;;;5030141;28;20044;-80
2021/01/03 03:23:59;;;;;;;10.63;6.32;;;3.10;97.80;;;;;;5020090;28;20046;-79
2021/01/03 03:26:43;;;;;;;9.82;6.00;;;3.10;97.60;;;;;;5012451;28;20048;-76
2021/01/03 03:29:19;;;;;;;12.07;6.43;;;3.20;97.50;;;;;;5032252;28;20091;-76
2021/01/03 03:31:44;;;;;;;10.80;5.90;;;3.10;97.40;;;;;;5031846;28;20065;-77
2021/01/03 03:34:10;;;;;;;11.27;6.13;;;3.10;97.70;;;;;;5025915;28;20505;-75
2021/01/03 03:36:35;;;;;;;11.50;6.55;;;3.10;97.50;;;;;;5027932;28;20179;-78
2021/01/03 03:39:01;;;;;;;10.38;6.05;;;3.10;97.40;;;;;;5027071;28;20034;-76
2021/01/03 03:41:31;;;;;;;11.05;6.57;;;3.10;97.40;;;;;;5026486;28;20563;-76
2021/01/03 03:43:56;;;;;;;14.05;6.95;;;3.10;97.40;;;;;;5034412;28;20037;-77
2021/01/03 03:46:22;;;;;;;12.50;6.72;;;3.10;97.50;;;;;;5034762;28;20037;-77
2021/01/03 03:48:47;;;;;;;10.63;6.30;;;3.10;97.50;;;;;;5031661;28;20047;-76
2021/01/03 03:51:17;;;;;;;11.07;6.55;;;3.10;97.50;;;;;;5035704;28;20037;-76
2021/01/03 03:53:43;;;;;;;11.52;6.60;;;3.10;97.50;;;;;;5037357;28;20064;-76
2021/01/03 03:56:10;;;;;;;10.30;5.65;;;3.10;97.50;;;;;;5035863;28;20038;-77
2021/01/03 03:58:35;;;;;;;9.63;5.82;;;3.20;97.20;;;;;;5022721;28;20247;-76
2021/01/03 04:01:04;;;;;;;10.25;5.75;;;3.20;97.50;;;;;;5017043;28;20049;-76
2021/01/03 04:03:34;;;;;;;9.65;5.20;;;3.20;97.20;;;;;;5033649;28;20097;-77
2021/01/03 04:06:00;;;;;;;10.75;5.63;;;3.20;97.30;;;;;;5036381;28;20033;-76
2021/01/03 04:08:26;;;;;;;10.57;6.20;;;3.20;97.20;;;;;;5015303;28;20133;-76
2021/01/03 04:10:51;;;;;;;10.15;6.28;;;3.10;97.40;;;;;;5035507;28;20040;-76
2021/01/03 04:13:17;;;;;;;9.23;5.70;;;3.20;97.40;;;;;;5036918;28;20045;-77
2021/01/03 04:15:43;;;;;;;10.43;5.95;;;3.10;97.40;;;;;;5018215;28;20045;-78
2021/01/03 04:18:09;;;;;;;10.23;6.05;;;3.10;97.80;;;;;;5034139;28;20491;-77
2021/01/03 04:20:34;;;;;;;10.88;6.72;;;3.10;97.70;;;;;;5018065;28;20454;-78
2021/01/03 04:23:03;;;;;;;9.18;5.80;;;3.10;98.00;;;;;;5034960;28;20112;-76
2021/01/03 04:25:44;;;;;;;10.90;6.30;;;3.10;97.90;;;;;;5011395;28;20563;-76
2021/01/03 04:28:10;;;;;;;8.57;5.50;;;3.10;97.90;;;;;;5032893;28;20419;-77
2021/01/03 04:30:35;;;;;;;9.25;5.78;;;3.10;97.80;;;;;;5037177;28;20029;-76
2021/01/03 04:33:01;;;;;;;11.55;6.30;;;3.10;97.90;;;;;;5031538;28;20044;-77
2021/01/03 04:35:26;;;;;;;8.60;5.25;;;3.60;97.60;;;;;;5026445;28;20046;-76
2021/01/03 04:38:03;;;;;;;10.23;5.65;;;3.10;97.50;;;;;;5035163;28;20048;-76
2021/01/03 04:40:31;;;;;;;13.38;6.30;;;3.20;97.50;;;;;;5034836;28;20450;-76
2021/01/03 04:43:02;;;;;;;10.70;5.80;;;3.20;97.50;;;;;;5033752;28;20582;-76
2021/01/03 04:45:38;;;;;;;11.30;6.45;;;3.20;97.60;;;;;;5032786;28;20451;-76
2021/01/03 04:48:17;;;;;;;9.43;6.07;;;3.10;97.70;;;;;;5034754;28;20068;-76
2021/01/03 04:50:56;;;;;;;10.05;6.00;;;3.10;98.00;;;;;;5032909;28;20049;-76
2021/01/03 04:53:47;;;;;;;11.95;6.45;;;3.10;98.00;;;;;;5032427;28;20045;-76
2021/01/03 04:56:32;;;;;;;9.88;6.03;;;3.10;98.00;;;;;;5023581;28;20128;-77
2021/01/03 04:59:15;;;;;;;11.98;6.45;;;3.10;98.00;;;;;;5026749;28;20033;-78
2021/01/03 05:02:05;;;;;;;10.10;5.78;;;3.10;98.20;;;;;;5044426;28;20034;-76
2021/01/03 05:04:52;;;;;;;9.65;5.70;;;3.00;98.20;;;;;;5031926;28;20037;-76
2021/01/03 05:07:26;;;;;;;11.02;5.55;;;3.10;98.40;;;;;;5023895;28;20033;-76
2021/01/03 05:09:54;;;;;;;8.60;5.53;;;3.10;98.10;;;;;;5023710;28;20060;-78
2021/01/03 05:12:36;;;;;;;10.70;6.18;;;3.10;98.00;;;;;;5038549;28;20171;-76
2021/01/03 05:15:15;;;;;;;10.05;6.43;;;3.10;98.00;;;;;;5042261;28;20032;-75
2021/01/03 05:17:41;;;;;;;10.18;5.68;;;3.10;98.10;;;;;;5031507;28;20034;-77
2021/01/03 05:20:07;;;;;;;9.35;5.78;;;3.10;98.40;;;;;;5034138;28;20038;-76
2021/01/03 05:22:36;;;;;;;10.27;5.80;;;3.10;98.30;;;;;;5031808;28;20042;-75
2021/01/03 05:25:08;;;;;;;9.90;5.72;;;3.10;98.20;;;;;;5032973;28;20045;-77
2021/01/03 05:27:41;;;;;;;10.20;5.90;;;3.10;98.40;;;;;;5033822;28;20037;-79
2021/01/03 05:30:21;;;;;;;9.88;5.65;;;3.10;98.40;;;;;;5030271;28;20038;-77
2021/01/03 05:32:47;;;;;;;9.23;5.78;;;3.10;98.40;;;;;;5036822;28;20020;-76
2021/01/03 05:35:36;;;;;;;11.23;6.30;;;3.10;98.60;;;;;;5030634;28;20580;-76
2021/01/03 05:38:02;;;;;;;9.98;5.72;;;3.00;98.50;;;;;;5038864;28;20039;-76
2021/01/03 05:41:07;;;;;;;9.85;6.32;;;3.00;98.70;;;;;;5030591;28;20069;-76
2021/01/03 05:43:32;;;;;;;11.55;6.43;;;3.00;98.20;;;;;;5042983;28;20037;-76
2021/01/03 05:46:21;;;;;;;12.10;7.05;;;3.00;98.70;;;;;;5027628;28;20034;-76
2021/01/03 05:49:03;;;;;;;12.00;6.93;;;3.10;98.70;;;;;;5033911;28;20029;-77
2021/01/03 05:51:47;;;;;;;11.65;6.53;;;3.10;98.50;;;;;;5037784;28;20037;-76
2021/01/03 05:54:21;;;;;;;10.18;6.40;;;3.10;98.60;;;;;;5020389;28;20187;-76
2021/01/03 05:56:47;;;;;;;10.77;6.32;;;3.00;98.60;;;;;;5030076;28;20041;-78
2021/01/03 05:59:27;;;;;;;12.18;6.32;;;3.10;98.50;;;;;;5015448;28;20094;-76
2021/01/03 06:02:18;;;;;;;10.80;6.20;;;3.00;98.60;;;;;;5032845;28;20399;-76
2021/01/03 06:04:43;;;;;;;10.60;6.57;;;3.10;98.70;;;;;;5021313;28;20521;-76
2021/01/03 06:07:28;;;;;;;11.23;6.65;;;3.00;98.60;;;;;;5030372;28;20092;-77
2021/01/03 06:09:54;;;;;;;9.88;5.97;;;3.00;98.80;;;;;;5026443;28;20378;-75
2021/01/03 06:12:29;;;;;;;10.63;6.18;;;3.00;98.70;;;;;;5029316;28;20550;-76
2021/01/03 06:15:00;;;;;;;10.40;6.20;;;3.00;98.70;;;;;;5030209;28;20021;-76
2021/01/03 06:17:33;;;;;;;12.63;6.13;;;3.00;98.60;;;;;;5025097;28;20649;-76
2021/01/03 06:20:14;;;;;;;10.90;5.82;;;3.00;98.90;;;;;;5032550;28;20048;-76
2021/01/03 06:22:52;;;;;;;10.40;6.13;;;3.10;98.60;;;;;;5035131;28;20526;-76
2021/01/03 06:25:25;;;;;;;11.15;7.05;;;3.10;98.70;;;;;;5035748;28;20043;-77
2021/01/03 06:27:51;;;;;;;9.30;5.72;;;3.10;98.70;;;;;;5031982;28;20057;-75
2021/01/03 06:30:22;;;;;;;11.68;6.40;;;3.00;98.70;;;;;;5041768;28;20025;-76
2021/01/03 06:32:59;;;;;;;12.45;6.80;;;3.10;98.70;;;;;;5032500;28;20516;-75
2021/01/03 06:35:32;;;;;;;12.95;6.85;;;3.10;98.70;;;;;;5043125;28;20025;-76
2021/01/03 06:38:48;;;;;;;10.13;5.97;;;3.10;98.70;;;;;;5031196;28;20036;-76
2021/01/03 06:42:03;;;;;;;12.73;6.68;;;3.10;98.80;;;;;;5000886;28;20088;-76
2021/01/03 06:44:38;;;;;;;10.93;6.47;;;3.10;98.70;;;;;;4957549;28;20038;-77
2021/01/03 06:47:22;;;;;;;10.40;5.95;;;3.10;98.70;;;;;;4960895;28;20092;-76
2021/01/03 06:50:04;;;;;;;10.95;5.97;;;3.10;98.80;;;;;;4991782;28;20562;-76
2021/01/03 06:52:45;;;;;;;9.55;6.45;;;3.10;98.80;;;;;;5035617;28;20033;-78
2021/01/03 06:55:40;;;;;;;9.65;5.93;;;3.10;98.80;;;;;;5026782;28;20033;-79
2021/01/03 06:58:42;;;;;;;10.77;6.25;;;3.10;98.90;;;;;;5033998;28;20037;-76
2021/01/03 07:01:37;;;;;;;9.85;6.35;;;3.10;98.70;;;;;;5027262;28;20109;-77
2021/01/03 07:04:13;;;;;;;10.32;5.88;;;3.10;98.80;;;;;;5041425;28;20041;-77
2021/01/03 07:07:02;;;;;;;11.57;6.93;;;3.00;98.50;;;;;;5024581;28;20029;-78
2021/01/03 07:09:28;;;;;;;12.13;6.70;;;3.10;98.60;;;;;;5029415;28;20147;-77
2021/01/03 07:11:58;;;;;;;10.32;6.60;;;3.10;98.60;;;;;;5034104;28;20049;-77
2021/01/03 07:14:23;;;;;;;11.73;7.18;;;3.00;98.40;;;;;;5033067;28;20148;-78
2021/01/03 07:17:08;;;;;;;11.55;7.50;;;3.10;98.40;;;;;;5035409;28;20511;-77
2021/01/03 07:19:51;;;;;;;11.45;6.97;;;3.10;98.20;;;;;;5036316;28;20075;-77
2021/01/03 07:22:29;;;;;;;10.35;6.93;;;3.10;98.50;;;;;;5035149;28;20025;-78
2021/01/03 07:24:54;;;;;;;10.35;6.93;;;3.10;98.40;;;;;;5037020;28;20127;-77
2021/01/03 07:27:39;;;;;;;10.93;6.88;;;3.10;98.40;;;;;;5033794;28;20049;-77
2021/01/03 07:30:04;;;;;;;10.05;6.70;;;3.10;98.60;;;;;;5033199;28;20037;-77
2021/01/03 07:32:33;;;;;;;12.27;7.25;;;3.10;98.30;;;;;;5033737;28;20061;-77
2021/01/03 07:35:04;;;;;;;11.85;7.70;;;3.10;98.00;;;;;;5038624;28;20510;-78
2021/01/03 07:37:32;;;;;;;11.13;7.63;;;3.10;98.10;;;;;;5034844;28;20040;-77
2021/01/03 07:40:05;;;;;;;10.80;7.25;;;3.10;98.10;;;;;;5050090;28;20038;-75
2021/01/03 07:42:44;;;;;;;12.02;7.53;;;3.80;98.10;;;;;;5034805;28;20030;-78
2021/01/03 07:45:50;;;;;;;10.25;6.75;;;3.10;97.90;;;;;;5051236;28;20037;-77
2021/01/03 07:48:37;;;;;;;11.00;7.32;;;3.10;97.90;;;;;;5042106;28;20058;-78
2021/01/03 07:51:20;;;;;;;12.63;8.00;;;3.10;98.10;;;;;;5040131;28;20060;-76
2021/01/03 07:53:50;;;;;;;12.30;8.00;;;3.10;98.10;;;;;;5039733;28;20034;-77
2021/01/03 07:56:18;;;;;;;12.48;8.20;;;3.10;98.10;;;;;;5034192;28;20033;-78
2021/01/03 07:58:44;;;;;;;11.80;7.68;;;3.10;98.00;;;;;;5032973;28;20093;-77
2021/01/03 08:01:15;;;;;;;11.18;8.00;;;3.10;97.80;;;;;;5043779;28;20030;-78
2021/01/03 08:03:53;;;;;;;12.65;8.00;;;3.10;97.80;;;;;;5037014;28;20037;-77
2021/01/03 08:06:20;;;;;;;10.60;7.40;;;3.10;97.90;;;;;;5042959;28;20038;-77
2021/01/03 08:08:53;;;;;;;12.98;8.35;;;3.10;97.30;;;;;;5034804;28;20043;-77
2021/01/03 08:11:41;;;;;;;11.20;7.32;;;3.10;97.50;;;;;;5034339;28;20044;-78
2021/01/03 08:14:20;;;;;;;11.85;8.07;;;3.20;97.40;;;;;;5035468;28;20029;-78
2021/01/03 08:16:45;;;;;;;12.32;7.82;;;3.20;97.40;;;;;;5039835;28;20036;-77
2021/01/03 08:19:11;;;;;;;11.90;8.52;;;3.10;97.60;;;;;;5035242;28;20033;-76
2021/01/03 08:21:39;;;;;;;12.60;8.23;;;3.20;97.50;;;;;;5032685;28;20060;-79
2021/01/03 08:24:13;;;;;;;12.18;7.93;;;3.20;97.50;;;;;;5037352;28;20542;-78
2021/01/03 08:26:48;;;;;;;12.93;9.15;;;3.20;97.50;;;;;;5033278;28;20029;-77
2021/01/03 08:29:23;;;;;;;15.30;8.95;;;3.30;97.40;;;;;;5051303;28;20047;-77
2021/01/03 08:31:53;;;;;;;12.95;8.30;;;3.30;97.30;;;;;;5047277;28;20033;-78
2021/01/03 08:34:42;;;;;;;13.65;8.75;;;3.30;97.20;;;;;;5052545;28;20052;-77
2021/01/03 08:37:24;;;;;;;12.77;8.63;;;3.30;96.90;;;;;;5028152;28;20033;-78
2021/01/03 08:39:52;;;;;;;13.02;7.82;;;3.30;97.00;;;;;;5036270;28;20061;-78
2021/01/03 08:42:39;;;;;;;13.15;9.05;;;3.30;96.90;;;;;;5035414;28;20521;-77
2021/01/03 08:45:07;;;;;;;12.88;8.50;;;3.30;96.80;;;;;;5029448;28;20125;-78
2021/01/03 08:47:38;;;;;;;12.48;8.90;;;3.30;96.90;;;;;;5027580;28;20200;-77
2021/01/03 08:50:11;;;;;;;;;;;3.20;97.10;;;;;;5036012;28;20024;-77
2021/01/03 08:52:38;;;;;;;13.23;8.38;;;3.30;97.10;;;;;;5034112;28;19962;-78
2021/01/03 08:55:09;;;;;;;13.50;8.98;;;3.80;97.10;;;;;;5025673;28;20048;-78
2021/01/03 08:57:34;;;;;;;14.38;9.70;;;3.30;97.00;;;;;;5027652;28;20037;-78
2021/01/03 09:00:00;;;;;;;13.43;8.73;;;3.40;96.80;;;;;;5040981;28;20130;-77
2021/01/03 09:02:28;;;;;;;14.07;9.70;;;3.30;96.80;;;;;;5015651;28;20116;-77
2021/01/03 09:04:59;;;;;;;14.82;9.80;;;3.40;96.90;;;;;;5031024;28;20105;-78
2021/01/03 09:07:27;;;;;;;14.13;9.50;;;3.50;96.80;;;;;;5057224;28;20041;-77
2021/01/03 09:09:59;;;;;;;13.40;9.23;;;4.20;96.90;;;;;;5033342;28;20056;-76
2021/01/03 09:12:39;;;;;;;15.38;9.48;;;3.50;96.80;;;;;;5031478;28;20021;-77
2021/01/03 09:15:21;;;;;;;11.82;8.77;;;3.40;96.90;;;;;;5029113;28;20045;-77
2021/01/03 09:18:13;;;;;;;13.52;8.80;;;3.40;97.10;;;;;;5033749;28;20142;-78
2021/01/03 09:20:44;;;;;;;15.32;9.52;;;3.40;97.10;;;;;;5033398;28;20033;-77
2021/01/03 09:23:18;;;;;;;15.18;9.38;;;3.50;97.40;;;;;;5036222;28;20076;-78
2021/01/03 09:25:52;;;;;;;13.25;8.65;;;3.50;97.20;;;;;;5038841;28;20037;-76
2021/01/03 09:28:34;;;;;;;13.32;9.10;;;3.60;97.00;;;;;;5032755;28;20029;-77
2021/01/03 09:31:30;;;;;;;16.95;9.32;;;3.60;97.00;;;;;;5028030;28;20494;-77
2021/01/03 09:34:24;;;;;;;14.55;9.55;;;3.60;96.50;;;;;;5017335;28;20117;-77
2021/01/03 09:37:02;;;;;;;15.10;9.63;;;3.60;96.80;;;;;;5038663;28;20459;-77
2021/01/03 09:39:30;;;;;;;14.30;9.90;;;3.70;96.60;;;;;;5029932;28;20754;-76
2021/01/03 09:42:16;;;;;;;16.25;10.50;;;3.70;96.90;;;;;;5031094;28;20037;-77
2021/01/03 09:44:55;;;;;;;14.85;9.75;;;3.70;96.80;;;;;;5035290;28;20049;-77
2021/01/03 09:47:21;;;;;;;14.05;9.68;;;3.80;96.70;;;;;;5035297;28;20109;-78
2021/01/03 09:49:52;;;;;;;12.88;8.85;;;3.70;96.70;;;;;;5016758;28;20076;-77
2021/01/03 09:52:27;;;;;;;12.57;8.60;;;4.50;96.80;;;;;;5030341;28;20057;-77
2021/01/03 09:55:02;;;;;;;14.48;9.75;;;3.90;96.70;;;;;;5028303;28;20041;-77
2021/01/03 09:57:53;;;;;;;12.63;8.07;;;3.80;96.50;;;;;;5028166;28;20628;-77
2021/01/03 10:00:23;;;;;;;13.60;8.68;;;4.00;96.10;;;;;;5038633;28;20116;-77
2021/01/03 10:02:50;;;;;;;14.63;9.53;;;4.00;96.00;;;;;;5038266;28;20029;-79
2021/01/03 10:05:29;;;;;;;16.65;10.05;;;3.90;96.30;;;;;;5038846;28;20037;-77
2021/01/03 10:08:05;;;;;;;13.85;9.48;;;3.90;96.50;;;;;;5042069;28;20043;-76
2021/01/03 10:11:00;;;;;;;13.73;9.50;;;3.80;97.10;;;;;;5030324;28;20061;-77
2021/01/03 10:13:28;;;;;;;14.18;9.57;;;3.80;97.50;;;;;;5022300;28;20052;-77
2021/01/03 10:15:55;;;;;;;12.90;8.38;;;3.80;97.20;;;;;;5036052;28;20034;-80
2021/01/03 10:18:36;;;;;;;13.35;9.15;;;3.90;96.80;;;;;;5015252;28;20034;-79
2021/01/03 10:21:31;;;;;;;14.05;9.40;;;3.90;96.60;;;;;;5028802;28;20033;-78
2021/01/03 10:24:04;;;;;;;14.05;9.23;;;3.70;96.90;;;;;;5031853;28;20037;-77
2021/01/03 10:26:34;;;;;;;12.77;8.25;;;4.00;96.90;;;;;;5029031;28;20049;-78
2021/01/03 10:29:00;;;;;;;12.90;8.02;;;6.50;97.10;;;;;;5027471;28;20044;-78
2021/01/03 10:31:46;;;;;;;13.38;9.20;;;4.30;95.90;;;;;;5032347;28;20040;-77
2021/01/03 10:34:14;;;;;;;13.45;8.35;;;4.20;96.20;;;;;;5030648;28;20116;-78
2021/01/03 10:36:40;;;;;;;13.85;8.65;;;7.20;97.20;;;;;;5035040;28;20057;-79
2021/01/03 10:39:08;;;;;;;14.70;8.57;;;6.50;96.90;;;;;;5032334;28;20568;-79
2021/01/03 10:41:35;;;;;;;12.20;8.10;;;4.30;96.10;;;;;;5033682;28;20040;-78
2021/01/03 10:44:02;;;;;;;10.88;7.45;;;4.50;96.10;;;;;;5036812;28;20029;-77
2021/01/03 10:46:28;;;;;;;11.27;7.80;;;4.60;95.70;;;;;;5028541;28;20068;-77
2021/01/03 10:48:53;;;;;;;13.18;8.07;;;4.60;95.60;;;;;;5032156;28;20523;-77
2021/01/03 10:51:34;;;;;;;14.02;8.20;;;5.60;96.00;;;;;;5024919;28;20479;-77
2021/01/03 10:54:01;;;;;;;16.35;9.60;;;4.60;95.80;;;;;;5025757;28;20046;-77
2021/01/03 10:56:27;;;;;;;13.38;9.07;;;4.60;96.60;;;;;;5025530;28;20105;-77
2021/01/03 10:58:53;;;;;;;13.45;7.72;;;7.60;98.20;;;;;;5027579;28;20531;-77
2021/01/03 11:01:19;;;;;;;10.43;7.57;;;4.50;97.10;;;;;;5027910;28;20072;-76
2021/01/03 11:03:45;;;;;;;11.40;7.65;;;4.60;96.50;;;;;;5028849;28;20029;-77
2021/01/03 11:06:10;;;;;;;11.98;7.60;;;4.60;96.50;;;;;;5028400;28;20506;-77
2021/01/03 11:08:37;;;;;;;11.45;7.60;;;4.60;96.80;;;;;;5030812;28;20052;-77
2021/01/03 11:11:04;;;;;;;12.27;8.20;;;4.50;96.40;;;;;;5031520;28;20041;-76
2021/01/03 11:13:29;;;;;;;14.52;8.93;;;4.50;96.30;;;;;;5031797;28;20091;-77
2021/01/03 11:15:55;;;;;;;13.07;8.65;;;4.40;97.50;;;;;;5028870;28;20061;-78
2021/01/03 11:18:21;;;;;;;13.82;8.38;;;4.50;97.30;;;;;;5030631;28;20068;-77
2021/01/03 11:20:47;;;;;;;13.18;7.78;;;4.40;97.50;;;;;;5037493;28;20076;-78
2021/01/03 11:23:13;;;;;;;13.88;8.43;;;4.40;97.20;;;;;;5028258;28;20044;-78
2021/01/03 11:25:38;;;;;;;11.65;7.93;;;4.30;98.20;;;;;;5036315;28;20068;-77
2021/01/03 11:28:04;;;;;;;12.10;7.93;;;4.20;98.10;;;;;;5015867;28;20403;-77
2021/01/03 11:30:30;;;;;;;13.40;8.32;;;4.40;97.40;;;;;;5034290;28;20073;-78
2021/01/03 11:32:56;;;;;;;11.18;7.88;;;4.20;97.90;;;;;;5026450;28;20042;-79
2021/01/03 11:35:22;;;;;;;13.02;8.80;;;4.20;98.10;;;;;;5032984;28;20072;-77
2021/01/03 11:37:48;;;;;;;12.60;8.13;;;4.20;98.00;;;;;;5018930;28;20057;-78
2021/01/03 11:40:15;;;;;;;14.27;8.35;;;4.30;97.60;;;;;;5029485;28;20096;-76
2021/01/03 11:42:41;;;;;;;13.60;8.75;;;4.00;98.80;;;;;;5052455;28;20041;-77
2021/01/03 11:45:13;;;;;;;14.23;9.10;;;4.00;99.30;;;;;;5025228;28;20412;-78
2021/01/03 11:47:39;;;;;;;12.43;8.73;;;4.00;99.30;;;;;;5029094;28;20045;-77
2021/01/03 11:50:11;;;;;;;13.63;8.35;;;4.10;99.80;;;;;;5019549;28;20033;-81
2021/01/03 11:52:40;;;;;;;15.00;8.57;;;4.20;98.80;;;;;;5029499;28;20042;-77
2021/01/03 11:55:08;;;;;;;14.13;9.00;;;4.30;98.50;;;;;;5024618;28;20034;-77
2021/01/03 11:57:34;;;;;;;11.80;8.27;;;4.30;99.00;;;;;;5020864;28;20034;-75
2021/01/03 11:59:59;;;;;;;15.55;9.00;;;4.40;98.40;;;;;;5020201;28;20048;-76
2021/01/03 12:02:28;;;;;;;12.75;8.65;;;4.40;98.40;;;;;;5030404;28;20040;-77
2021/01/03 12:04:53;;;;;;;12.90;8.50;;;4.50;98.20;;;;;;5026632;28;20474;-76
2021/01/03 12:07:20;;;;;;;15.82;9.93;;;4.50;98.50;;;;;;5008630;28;20582;-77
2021/01/03 12:09:47;;;;;;;14.48;8.88;;;4.80;99.40;;;;;;5027374;28;20037;-77
2021/01/03 12:12:17;;;;;;;14.07;9.40;;;4.30;99.70;;;;;;5028989;28;20049;-76
2021/01/03 12:14:42;;;;;;;12.60;7.95;;;4.30;99.90;;;;;;5034848;28;20105;-76
2021/01/03 12:17:15;;;;;;;12.95;8.43;;;4.80;99.90;;;;;;5023152;28;20137;-76
2021/01/03 12:19:42;;;;;;;13.90;8.57;;;4.40;99.30;;;;;;5024892;28;20601;-77
2021/01/03 12:22:07;;;;;;;12.68;7.90;;;4.40;99.40;;;;;;5028491;28;20045;-77
2021/01/03 12:24:34;;;;;;;11.93;8.15;;;4.40;99.70;;;;;;5025488;28;20108;-77
2021/01/03 12:27:00;;;;;;;15.00;8.32;;;4.40;99.60;;;;;;5026776;28;20053;-76
2021/01/03 12:29:27;;;;;;;12.57;8.15;;;4.30;99.90;;;;;;5041932;28;20068;-78
2021/01/03 12:31:55;;;;;;;12.70;8.20;;;4.30;99.50;;;;;;5026956;28;20544;-77
2021/01/03 12:34:26;;;;;;;12.23;7.68;;;4.40;99.50;;;;;;5029997;28;20438;-76
2021/01/03 12:37:00;;;;;;;11.60;8.00;;;4.30;99.90;;;;;;5027060;28;20038;-76
2021/01/03 12:39:26;;;;;;;10.48;8.00;;;4.30;99.90;;;;;;5022455;28;20042;-75
2021/01/03 12:41:52;;;;;;;14.88;8.40;;;4.30;99.90;;;;;;5024102;28;20453;-76
2021/01/03 12:44:18;;;;;;;11.10;6.97;;;4.30;99.90;;;;;;5028956;28;20071;-77
2021/01/03 12:46:44;;;;;;;12.45;7.72;;;4.40;99.90;;;;;;5023456;28;20045;-77
2021/01/03 12:49:11;;;;;;;12.20;8.20;;;4.30;99.90;;;;;;5021302;28;20094;-77
2021/01/03 12:51:37;;;;;;;10.52;7.13;;;4.30;99.90;;;;;;5020687;28;20035;-77
2021/01/03 12:54:04;;;;;;;10.70;7.03;;;4.40;99.90;;;;;;5024954;28;21383;-76
2021/01/03 12:56:30;;;;;;;10.73;6.88;;;4.40;99.90;;;;;;5032852;28;20037;-77
2021/01/03 12:58:58;;;;;;;10.38;7.65;;;4.50;99.90;;;;;;5026744;28;20120;-76
2021/01/03 13:01:28;;;;;;;11.70;7.50;;;4.50;99.90;;;;;;5030672;28;20057;-76
2021/01/03 13:03:54;;;;;;;13.15;8.85;;;4.50;99.90;;;;;;5023695;28;20025;-77
2021/01/03 13:06:20;;;;;;;12.23;8.35;;;4.50;99.90;;;;;;5017854;28;20045;-76
2021/01/03 13:08:45;;;;;;;10.88;7.45;;;4.50;99.90;;;;;;5028207;28;20025;-76
2021/01/03 13:11:11;;;;;;;11.85;7.90;;;4.50;99.90;;;;;;5033259;28;20108;-77
2021/01/03 13:13:37;;;;;;;12.32;7.82;;;4.50;99.90;;;;;;5013807;28;20065;-76
2021/01/03 13:16:03;;;;;;;11.75;7.45;;;4.50;99.90;;;;;;4999330;28;20071;-77
2021/01/03 13:18:28;;;;;;;11.85;7.78;;;4.60;99.90;;;;;;5012271;28;20056;-77